Time;durP1;ratioP1;P1;durP2;ratioP2;P2;SDS_P1;SDS_P2;PMS_P1;PMS_P2;Temp;Humidity;BMP_temperature;BMP_pressure;BME280_temperature;BME280_humidity;BME280_pressure;Samples;Min_cycle;Max_cycle;Signal;HPM_P1;HPM_P2
2022/10/25 00:02:14;;;;;;;10.65;2.08;;;;;;;;;;5046387;28;20037;-73
2022/10/25 00:04:39;;;;;;;6.50;1.40;;;;;;;;;;5046883;28;20032;-72
2022/10/25 00:07:04;;;;;;;6.85;1.40;;;;;;;;;;5045673;28;20040;-73
2022/10/25 00:09:30;;;;;;;5.10;1.25;;;;;;;;;;5037295;28;20048;-73
2022/10/25 00:11:55;;;;;;;6.50;1.80;;;;;;;;;;5046883;28;20029;-72
2022/10/25 00:14:20;;;;;;;5.90;1.50;;;;;;;;;;5046444;28;20402;-72
2022/10/25 00:16:46;;;;;;;10.23;1.60;;;;;;;;;;5032326;28;20090;-73
2022/10/25 00:19:13;;;;;;;7.97;2.38;;;;;;;;;;5046571;28;20036;-73
2022/10/25 00:21:38;;;;;;;5.00;1.25;;;;;;;;;;5045499;28;20035;-73
2022/10/25 00:24:04;;;;;;;5.50;1.40;;;;;;;;;;5043053;28;20001;-72
2022/10/25 00:26:29;;;;;;;5.13;2.10;;;;;;;;;;5027575;28;20044;-73
2022/10/25 00:28:55;;;;;;;4.93;1.38;;;;;;;;;;5045203;28;20124;-73
2022/10/25 00:31:20;;;;;;;4.93;1.27;;;;;;;;;;5045990;28;20048;-73
2022/10/25 00:33:46;;;;;;;5.90;1.48;;;;;;;;;;5045123;28;20036;-72
2022/10/25 00:36:14;;;;;;;4.97;1.40;;;;;;;;;;5045298;28;20024;-73
2022/10/25 00:38:40;;;;;;;2.85;1.40;;;;;;;;;;5045969;28;20468;-73
2022/10/25 00:41:07;;;;;;;5.63;1.38;;;;;;;;;;5046493;28;20029;-72
2022/10/25 00:43:35;;;;;;;3.95;1.10;;;;;;;;;;5046273;28;20037;-73
2022/10/25 00:46:04;;;;;;;6.72;1.35;;;;;;;;;;5033005;28;20072;-73
2022/10/25 00:48:29;;;;;;;4.60;1.58;;;;;;;;;;5036197;28;20525;-73
2022/10/25 00:50:56;;;;;;;2.97;1.20;;;;;;;;;;5046367;28;20029;-73
2022/10/25 00:53:26;;;;;;;4.07;1.30;;;;;;;;;;5044641;28;20033;-73
2022/10/25 00:56:11;;;;;;;6.47;1.40;;;;;;;;;;5046390;28;20048;-73
2022/10/25 00:58:38;;;;;;;4.18;1.20;;;;;;;;;;5042982;28;20025;-73
2022/10/25 01:01:07;;;;;;;7.07;1.42;;;;;;;;;;5046241;28;20029;-73
2022/10/25 01:03:33;;;;;;;6.07;1.23;;;;;;;;;;5046732;28;20048;-73
2022/10/25 01:06:01;;;;;;;4.50;1.60;;;;;;;;;;5045981;28;20430;-73
2022/10/25 01:08:27;;;;;;;4.43;1.50;;;;;;;;;;5045652;28;20037;-73
2022/10/25 01:10:52;;;;;;;7.03;1.70;;;;;;;;;;5045750;28;20586;-72
2022/10/25 01:13:17;;;;;;;5.18;1.50;;;;;;;;;;5045567;28;20075;-73
2022/10/25 01:16:08;;;;;;;6.43;1.67;;;;;;;;;;5046096;28;20112;-72
2022/10/25 01:18:43;;;;;;;3.30;1.58;;;;;;;;;;5046169;28;20033;-72
2022/10/25 01:21:48;;;;;;;7.43;1.90;;;;;;;;;;5046354;28;20124;-73
2022/10/25 01:24:34;;;;;;;7.15;1.92;;;;;;;;;;5045463;28;20078;-73
2022/10/25 01:27:18;;;;;;;8.70;1.85;;;;;;;;;;5045249;28;20083;-73
2022/10/25 01:29:52;;;;;;;;;;;;;;;;;;5040907;28;20052;-73
2022/10/25 01:32:37;;;;;;;4.57;1.30;;;;;;;;;;5032763;28;20340;-72
2022/10/25 01:35:26;;;;;;;5.93;1.75;;;;;;;;;;5044459;28;20880;-73
2022/10/25 01:38:07;;;;;;;6.57;2.22;;;;;;;;;;5048068;28;20040;-73
2022/10/25 01:40:51;;;;;;;10.05;1.85;;;;;;;;;;5048239;28;20067;-73
2022/10/25 01:43:37;;;;;;;5.10;1.42;;;;;;;;;;5049375;28;20035;-71
2022/10/25 01:46:24;;;;;;;11.15;1.90;;;;;;;;;;5049276;28;20037;-73
2022/10/25 01:49:00;;;;;;;6.28;1.75;;;;;;;;;;5049292;28;20111;-72
2022/10/25 01:51:27;;;;;;;10.25;1.40;;;;;;;;;;5040770;28;20029;-73
2022/10/25 01:53:53;;;;;;;2.97;1.83;;;;;;;;;;5047037;28;20094;-73
2022/10/25 01:56:28;;;;;;;5.13;1.50;;;;;;;;;;5049073;28;20565;-73
2022/10/25 01:59:09;;;;;;;4.70;1.50;;;;;;;;;;5048510;28;20047;-73
2022/10/25 02:01:34;;;;;;;9.27;1.77;;;;;;;;;;5049377;28;20121;-73
2022/10/25 02:04:18;;;;;;;4.88;1.83;;;;;;;;;;5044097;28;20526;-73
2022/10/25 02:06:59;;;;;;;5.32;1.73;;;;;;;;;;5029214;28;20021;-73
2022/10/25 02:09:34;;;;;;;4.50;1.60;;;;;;;;;;5028124;28;20024;-73
2022/10/25 02:12:02;;;;;;;8.50;1.83;;;;;;;;;;5029012;28;20025;-73
2022/10/25 02:14:37;;;;;;;7.53;1.92;;;;;;;;;;5027707;28;20416;-73
2022/10/25 02:17:23;;;;;;;4.40;1.80;;;;;;;;;;5041791;28;20033;-73
2022/10/25 02:19:51;;;;;;;4.30;1.60;;;;;;;;;;5047952;28;20537;-73
2022/10/25 02:22:19;;;;;;;5.15;1.63;;;;;;;;;;5048748;28;20025;-73
2022/10/25 02:24:46;;;;;;;6.35;1.70;;;;;;;;;;5048678;28;20024;-72
2022/10/25 02:27:13;;;;;;;6.13;1.45;;;;;;;;;;5049143;28;20036;-73
2022/10/25 02:29:38;;;;;;;6.95;1.63;;;;;;;;;;5048706;28;20029;-73
2022/10/25 02:32:04;;;;;;;7.65;1.88;;;;;;;;;;5048350;28;20685;-73
2022/10/25 02:34:31;;;;;;;8.65;1.92;;;;;;;;;;5048140;28;20090;-73
2022/10/25 02:36:56;;;;;;;6.68;1.70;;;;;;;;;;5048701;28;20040;-73
2022/10/25 02:39:24;;;;;;;7.07;1.90;;;;;;;;;;5048558;28;20018;-73
2022/10/25 02:41:49;;;;;;;7.57;2.20;;;;;;;;;;5048345;28;20051;-73
2022/10/25 02:44:14;;;;;;;6.93;1.88;;;;;;;;;;5047061;28;20041;-73
2022/10/25 02:46:40;;;;;;;6.95;1.52;;;;;;;;;;5046607;28;20025;-73
2022/10/25 02:49:05;;;;;;;10.38;2.00;;;;;;;;;;5052174;28;20379;-72
2022/10/25 02:51:30;;;;;;;6.47;1.73;;;;;;;;;;5047197;28;20115;-73
2022/10/25 02:53:56;;;;;;;9.25;1.95;;;;;;;;;;5047753;28;20052;-73
2022/10/25 02:56:21;;;;;;;7.10;1.88;;;;;;;;;;5048469;28;20037;-73
2022/10/25 02:58:49;;;;;;;10.98;2.15;;;;;;;;;;5047892;28;20033;-73
2022/10/25 03:01:16;;;;;;;10.25;2.20;;;;;;;;;;5042487;28;20066;-73
2022/10/25 03:03:42;;;;;;;9.68;1.90;;;;;;;;;;5047911;28;20101;-72
2022/10/25 03:06:09;;;;;;;6.95;1.88;;;;;;;;;;5048071;28;20112;-73
2022/10/25 03:08:35;;;;;;;5.38;2.13;;;;;;;;;;5048047;28;20120;-73
2022/10/25 03:11:00;;;;;;;10.82;2.47;;;;;;;;;;5046435;28;20493;-73
2022/10/25 03:13:25;;;;;;;11.48;2.40;;;;;;;;;;5046898;28;20450;-73
2022/10/25 03:15:51;;;;;;;7.00;2.00;;;;;;;;;;5042139;28;20025;-73
2022/10/25 03:18:16;;;;;;;11.25;2.05;;;;;;;;;;5047440;28;20029;-73
2022/10/25 03:20:42;;;;;;;6.28;1.70;;;;;;;;;;5047565;28;20029;-73
2022/10/25 03:23:08;;;;;;;6.13;1.88;;;;;;;;;;5047789;28;20037;-73
2022/10/25 03:25:34;;;;;;;7.20;1.83;;;;;;;;;;5046952;28;20053;-73
2022/10/25 03:27:59;;;;;;;4.03;1.80;;;;;;;;;;5047772;28;20079;-73
2022/10/25 03:30:26;;;;;;;6.95;1.80;;;;;;;;;;5047572;28;20506;-73
2022/10/25 03:32:51;;;;;;;5.95;2.15;;;;;;;;;;5047349;28;20426;-73
2022/10/25 03:35:16;;;;;;;5.85;1.95;;;;;;;;;;5047023;28;20579;-73
2022/10/25 03:37:42;;;;;;;6.38;2.22;;;;;;;;;;5047562;28;20033;-73
2022/10/25 03:40:08;;;;;;;6.38;1.88;;;;;;;;;;5045469;28;20036;-73
2022/10/25 03:42:33;;;;;;;7.20;2.08;;;;;;;;;;5048337;28;20748;-73
2022/10/25 03:44:58;;;;;;;6.85;1.70;;;;;;;;;;5046800;28;20041;-73
2022/10/25 03:47:24;;;;;;;9.25;1.98;;;;;;;;;;5039207;28;20797;-73
2022/10/25 03:49:49;;;;;;;4.68;1.50;;;;;;;;;;5047394;28;20041;-73
2022/10/25 03:52:14;;;;;;;8.20;1.80;;;;;;;;;;5046720;28;20036;-73
2022/10/25 03:54:41;;;;;;;10.25;1.80;;;;;;;;;;5047029;28;20021;-72
2022/10/25 03:57:06;;;;;;;5.78;2.10;;;;;;;;;;5045791;28;20028;-73
2022/10/25 03:59:32;;;;;;;10.07;1.58;;;;;;;;;;5046125;28;20033;-73
2022/10/25 04:01:57;;;;;;;6.93;1.90;;;;;;;;;;5046751;28;20036;-73
2022/10/25 04:04:22;;;;;;;7.60;1.45;;;;;;;;;;5041436;28;20124;-73
2022/10/25 04:06:48;;;;;;;5.55;1.60;;;;;;;;;;5036418;28;20029;-73
2022/10/25 04:09:13;;;;;;;6.05;1.85;;;;;;;;;;5047298;28;20036;-73
2022/10/25 04:11:39;;;;;;;6.57;1.73;;;;;;;;;;5046715;28;20112;-73
2022/10/25 04:14:04;;;;;;;4.72;1.60;;;;;;;;;;5042541;28;20037;-73
2022/10/25 04:16:29;;;;;;;13.00;2.03;;;;;;;;;;5046934;28;20450;-75
2022/10/25 04:18:56;;;;;;;5.65;1.70;;;;;;;;;;5046013;28;20119;-73
2022/10/25 04:21:22;;;;;;;7.80;1.70;;;;;;;;;;5047138;28;20032;-73
2022/10/25 04:23:48;;;;;;;8.00;1.80;;;;;;;;;;5046257;28;20036;-73
2022/10/25 04:26:16;;;;;;;6.32;1.75;;;;;;;;;;5044380;28;20037;-73
2022/10/25 04:28:53;;;;;;;5.80;1.70;;;;;;;;;;5046110;28;20041;-73
2022/10/25 04:31:19;;;;;;;8.25;1.67;;;;;;;;;;5045826;28;20031;-73
2022/10/25 04:33:49;;;;;;;7.18;2.00;;;;;;;;;;5046122;28;20506;-73
2022/10/25 04:36:15;;;;;;;10.38;1.90;;;;;;;;;;5046415;28;20029;-73
2022/10/25 04:38:40;;;;;;;7.68;1.75;;;;;;;;;;5036336;28;20392;-73
2022/10/25 04:41:05;;;;;;;3.70;1.90;;;;;;;;;;5045946;28;20033;-73
2022/10/25 04:43:30;;;;;;;8.15;1.77;;;;;;;;;;5045359;28;20067;-73
2022/10/25 04:46:00;;;;;;;9.02;1.75;;;;;;;;;;5045227;28;20029;-73
2022/10/25 04:48:25;;;;;;;6.97;2.42;;;;;;;;;;5044546;28;20078;-72
2022/10/25 04:50:51;;;;;;;9.63;2.15;;;;;;;;;;5045396;28;20030;-73
2022/10/25 04:53:16;;;;;;;10.13;2.15;;;;;;;;;;5040941;28;20033;-72
2022/10/25 04:55:42;;;;;;;7.47;1.85;;;;;;;;;;5042580;28;20091;-73
2022/10/25 04:58:07;;;;;;;7.65;1.58;;;;;;;;;;5046174;28;20079;-73
2022/10/25 05:00:32;;;;;;;3.95;1.77;;;;;;;;;;5046094;28;20074;-73
2022/10/25 05:02:58;;;;;;;6.07;2.00;;;;;;;;;;5038017;28;20048;-73
2022/10/25 05:05:24;;;;;;;7.45;1.90;;;;;;;;;;5034952;28;20053;-73
2022/10/25 05:07:49;;;;;;;7.95;1.95;;;;;;;;;;5042345;28;20417;-73
2022/10/25 05:10:14;;;;;;;4.88;1.60;;;;;;;;;;5046123;28;20147;-73
2022/10/25 05:12:40;;;;;;;9.70;1.92;;;;;;;;;;5032351;28;20041;-73
2022/10/25 05:15:06;;;;;;;6.70;1.77;;;;;;;;;;5038277;28;20418;-73
2022/10/25 05:17:32;;;;;;;10.52;2.03;;;;;;;;;;5030273;28;20087;-72
2022/10/25 05:19:57;;;;;;;9.50;1.90;;;;;;;;;;5028279;28;20539;-73
2022/10/25 05:22:23;;;;;;;6.72;2.03;;;;;;;;;;5035682;28;20038;-73
2022/10/25 05:24:48;;;;;;;9.57;2.30;;;;;;;;;;5049895;28;20024;-73
2022/10/25 05:27:13;;;;;;;8.02;1.80;;;;;;;;;;5050348;28;20021;-73
2022/10/25 05:29:39;;;;;;;7.50;1.80;;;;;;;;;;5049792;28;20414;-73
2022/10/25 05:32:05;;;;;;;4.13;1.50;;;;;;;;;;5045958;28;20124;-73
2022/10/25 05:34:30;;;;;;;3.78;1.50;;;;;;;;;;5048765;28;20033;-73
2022/10/25 05:36:56;;;;;;;7.43;1.88;;;;;;;;;;5047624;28;20546;-73
2022/10/25 05:39:21;;;;;;;8.88;2.20;;;;;;;;;;5041749;28;20028;-73
2022/10/25 05:41:48;;;;;;;4.22;1.60;;;;;;;;;;5044645;28;20521;-73
2022/10/25 05:44:15;;;;;;;3.60;1.67;;;;;;;;;;5050391;28;20049;-73
2022/10/25 05:46:41;;;;;;;9.93;2.10;;;;;;;;;;5049389;28;20056;-73
2022/10/25 05:49:06;;;;;;;7.03;1.70;;;;;;;;;;5050284;28;20555;-73
2022/10/25 05:51:32;;;;;;;10.73;1.70;;;;;;;;;;5039108;28;20025;-72
2022/10/25 05:53:59;;;;;;;4.57;1.85;;;;;;;;;;5032974;28;20037;-73
2022/10/25 05:56:29;;;;;;;5.93;1.98;;;;;;;;;;5033378;28;20481;-73
2022/10/25 05:58:56;;;;;;;6.53;2.17;;;;;;;;;;5029285;28;20040;-73
2022/10/25 06:01:22;;;;;;;7.95;1.75;;;;;;;;;;5029081;28;20125;-73
2022/10/25 06:03:52;;;;;;;3.75;1.40;;;;;;;;;;5033662;28;20099;-73
2022/10/25 06:06:18;;;;;;;5.00;1.55;;;;;;;;;;5028338;28;20561;-73
2022/10/25 06:08:44;;;;;;;4.10;1.55;;;;;;;;;;5029279;28;20053;-72
2022/10/25 06:11:13;;;;;;;11.40;1.70;;;;;;;;;;5039792;28;20149;-73
2022/10/25 06:13:38;;;;;;;5.07;1.50;;;;;;;;;;5049067;28;20158;-73
2022/10/25 06:16:06;;;;;;;3.13;1.55;;;;;;;;;;5048886;28;20104;-73
2022/10/25 06:18:32;;;;;;;5.45;1.55;;;;;;;;;;5049391;28;20028;-73
2022/10/25 06:21:09;;;;;;;7.82;1.67;;;;;;;;;;5049098;28;20629;-73
2022/10/25 06:23:37;;;;;;;11.45;1.73;;;;;;;;;;5042755;28;20057;-72
2022/10/25 06:26:11;;;;;;;7.18;1.70;;;;;;;;;;5026809;28;20170;-73
2022/10/25 06:28:37;;;;;;;6.05;1.40;;;;;;;;;;5035543;28;20036;-72
2022/10/25 06:31:23;;;;;;;4.43;1.83;;;;;;;;;;5041580;28;20514;-73
2022/10/25 06:33:48;;;;;;;9.55;1.73;;;;;;;;;;5047606;28;20414;-72
2022/10/25 06:36:32;;;;;;;3.10;1.33;;;;;;;;;;5049437;28;20504;-73
2022/10/25 06:38:57;;;;;;;3.85;2.13;;;;;;;;;;5044826;28;20067;-73
2022/10/25 06:41:26;;;;;;;7.70;1.90;;;;;;;;;;5047606;28;20064;-73
2022/10/25 06:43:53;;;;;;;6.70;1.90;;;;;;;;;;5045988;28;20120;-72
2022/10/25 06:46:24;;;;;;;10.70;1.80;;;;;;;;;;5046742;28;20040;-72
2022/10/25 06:48:51;;;;;;;6.68;1.92;;;;;;;;;;5046627;28;20088;-72
2022/10/25 06:51:17;;;;;;;8.40;1.60;;;;;;;;;;5035888;28;20028;-72
2022/10/25 06:53:43;;;;;;;5.40;1.33;;;;;;;;;;5031849;28;20025;-72
2022/10/25 06:56:10;;;;;;;9.80;1.67;;;;;;;;;;5033033;28;20025;-72
2022/10/25 06:58:36;;;;;;;11.98;1.77;;;;;;;;;;5027340;28;20103;-72
2022/10/25 07:01:08;;;;;;;8.18;1.70;;;;;;;;;;5029417;28;20403;-73
2022/10/25 07:03:34;;;;;;;5.35;1.55;;;;;;;;;;5032863;28;20434;-72
2022/10/25 07:06:11;;;;;;;4.90;1.50;;;;;;;;;;5042383;28;20537;-73
2022/10/25 07:08:38;;;;;;;5.97;1.42;;;;;;;;;;5028412;28;20462;-72
2022/10/25 07:11:04;;;;;;;8.98;1.80;;;;;;;;;;5028215;28;20033;-73
2022/10/25 07:13:32;;;;;;;5.50;1.70;;;;;;;;;;5028445;28;20044;-72
2022/10/25 07:16:04;;;;;;;9.73;2.03;;;;;;;;;;5043140;28;20087;-73
2022/10/25 07:18:31;;;;;;;3.03;1.30;;;;;;;;;;5035788;28;20024;-73
2022/10/25 07:21:09;;;;;;;7.13;1.88;;;;;;;;;;5048310;28;20040;-72
2022/10/25 07:23:40;;;;;;;8.10;1.60;;;;;;;;;;5047083;28;20036;-72
2022/10/25 07:26:06;;;;;;;4.80;1.48;;;;;;;;;;5047578;28;20034;-72
2022/10/25 07:28:32;;;;;;;3.83;1.30;;;;;;;;;;5048035;28;20029;-72
2022/10/25 07:30:57;;;;;;;3.90;1.55;;;;;;;;;;5047423;28;20043;-72
2022/10/25 07:33:22;;;;;;;3.30;1.42;;;;;;;;;;5048256;28;20569;-73
2022/10/25 07:35:49;;;;;;;7.53;1.50;;;;;;;;;;5045742;28;20033;-72
2022/10/25 07:38:15;;;;;;;13.50;2.05;;;;;;;;;;5048173;28;20195;-73
2022/10/25 07:40:41;;;;;;;8.00;1.60;;;;;;;;;;5046062;28;20395;-73
2022/10/25 07:43:07;;;;;;;2.92;1.00;;;;;;;;;;5043052;28;20132;-73
2022/10/25 07:45:33;;;;;;;8.32;1.63;;;;;;;;;;5047599;28;20708;-73
2022/10/25 07:47:59;;;;;;;6.18;1.58;;;;;;;;;;5063046;28;20032;-73
2022/10/25 07:50:24;;;;;;;5.65;2.03;;;;;;;;;;5048984;28;20053;-73
2022/10/25 07:52:49;;;;;;;6.53;1.60;;;;;;;;;;5062221;28;20033;-73
2022/10/25 07:55:15;;;;;;;4.97;1.40;;;;;;;;;;5068101;28;20140;-73
2022/10/25 07:57:40;;;;;;;3.97;1.50;;;;;;;;;;5066280;28;20029;-73
2022/10/25 08:00:08;;;;;;;4.40;1.63;;;;;;;;;;5064870;28;20097;-73
2022/10/25 08:02:33;;;;;;;5.35;1.40;;;;;;;;;;5066765;28;20115;-73
2022/10/25 08:04:59;;;;;;;5.30;1.83;;;;;;;;;;5067121;28;20616;-73
2022/10/25 08:07:24;;;;;;;3.30;1.35;;;;;;;;;;5066474;28;20045;-73
2022/10/25 08:09:49;;;;;;;6.93;1.70;;;;;;;;;;5065569;28;20033;-72
2022/10/25 08:12:15;;;;;;;7.97;1.20;;;;;;;;;;5037365;28;20032;-73
2022/10/25 08:14:40;;;;;;;3.65;1.42;;;;;;;;;;5047186;28;20037;-73
2022/10/25 08:17:05;;;;;;;5.50;2.20;;;;;;;;;;5043921;28;20069;-73
2022/10/25 08:19:31;;;;;;;7.03;1.55;;;;;;;;;;5043139;28;20060;-73
2022/10/25 08:21:56;;;;;;;6.88;1.50;;;;;;;;;;5043591;28;20047;-73
2022/10/25 08:24:21;;;;;;;7.93;1.90;;;;;;;;;;5048252;28;20017;-73
2022/10/25 08:26:47;;;;;;;5.97;1.67;;;;;;;;;;5041830;28;20102;-72
2022/10/25 08:29:13;;;;;;;9.80;1.65;;;;;;;;;;5045498;28;20850;-73
2022/10/25 08:31:38;;;;;;;6.68;1.50;;;;;;;;;;5045932;28;20033;-74
2022/10/25 08:34:03;;;;;;;5.75;2.20;;;;;;;;;;5045850;28;20784;-73
2022/10/25 08:36:28;;;;;;;5.60;1.48;;;;;;;;;;5045238;28;20021;-74
2022/10/25 08:38:54;;;;;;;6.18;1.67;;;;;;;;;;5045512;28;20044;-73
2022/10/25 08:41:41;;;;;;;3.97;1.50;;;;;;;;;;5045654;28;20043;-74
2022/10/25 08:44:22;;;;;;;9.65;1.77;;;;;;;;;;5041202;28;20044;-73
2022/10/25 08:47:05;;;;;;;4.70;1.88;;;;;;;;;;5053981;28;20177;-74
2022/10/25 08:50:12;;;;;;;5.38;1.70;;;;;;;;;;5050958;28;20170;-73
2022/10/25 08:52:57;;;;;;;4.68;1.75;;;;;;;;;;5042717;28;20037;-74
2022/10/25 08:55:38;;;;;;;4.25;1.50;;;;;;;;;;5045816;28;20044;-74
2022/10/25 08:58:10;;;;;;;5.97;2.30;;;;;;;;;;5045587;28;20514;-72
2022/10/25 09:00:38;;;;;;;7.55;2.00;;;;;;;;;;5051449;28;20107;-73
2022/10/25 09:03:04;;;;;;;8.63;1.73;;;;;;;;;;5069856;28;20033;-73
2022/10/25 09:05:41;;;;;;;7.20;2.00;;;;;;;;;;5070048;28;20090;-74
2022/10/25 09:08:25;;;;;;;4.53;1.60;;;;;;;;;;5068212;28;20049;-73
2022/10/25 09:11:32;;;;;;;5.28;1.85;;;;;;;;;;5068545;28;20037;-73
2022/10/25 09:14:09;;;;;;;6.90;2.10;;;;;;;;;;5001334;28;20591;-73
2022/10/25 09:17:15;;;;;;;7.43;1.90;;;;;;;;;;5024479;28;20055;-73
2022/10/25 09:20:10;;;;;;;8.38;1.70;;;;;;;;;;5044908;28;20540;-73
2022/10/25 09:23:06;;;;;;;6.85;1.58;;;;;;;;;;5049790;28;20058;-74
2022/10/25 09:25:51;;;;;;;6.38;1.98;;;;;;;;;;5038531;28;20033;-73
2022/10/25 09:28:23;;;;;;;5.32;1.80;;;;;;;;;;5049509;28;20120;-72
2022/10/25 09:30:52;;;;;;;6.03;1.83;;;;;;;;;;5048473;28;20498;-73
2022/10/25 09:33:27;;;;;;;5.82;1.70;;;;;;;;;;5047949;28;20051;-73
2022/10/25 09:35:55;;;;;;;4.32;1.60;;;;;;;;;;5039297;28;20116;-73
2022/10/25 09:38:42;;;;;;;7.32;1.70;;;;;;;;;;5041536;28;20021;-73
2022/10/25 09:41:23;;;;;;;2.22;1.40;;;;;;;;;;5033143;28;20951;-72
2022/10/25 09:43:56;;;;;;;7.90;1.85;;;;;;;;;;5035869;28;20165;-73
2022/10/25 09:46:34;;;;;;;5.97;1.67;;;;;;;;;;5028446;28;20037;-73
2022/10/25 09:49:09;;;;;;;3.70;1.60;;;;;;;;;;5042499;28;20044;-72
2022/10/25 09:51:45;;;;;;;5.78;1.80;;;;;;;;;;5048325;28;20029;-73
2022/10/25 09:54:21;;;;;;;9.85;1.70;;;;;;;;;;5034299;28;20088;-73
2022/10/25 09:56:46;;;;;;;5.38;1.83;;;;;;;;;;5043555;28;20485;-73
2022/10/25 09:59:14;;;;;;;6.57;1.50;;;;;;;;;;5037433;28;20068;-72
2022/10/25 10:01:40;;;;;;;4.70;1.70;;;;;;;;;;5038868;28;20106;-72
2022/10/25 10:04:35;;;;;;;7.95;1.65;;;;;;;;;;5041019;28;20522;-73
2022/10/25 10:07:32;;;;;;;3.35;1.60;;;;;;;;;;5042244;28;20036;-73
2022/10/25 10:10:04;;;;;;;5.30;1.90;;;;;;;;;;5041694;28;20120;-73
2022/10/25 10:12:44;;;;;;;5.38;1.90;;;;;;;;;;5046740;28;20545;-72
2022/10/25 10:15:14;;;;;;;6.53;1.80;;;;;;;;;;5056751;28;20043;-74
2022/10/25 10:17:39;;;;;;;4.63;1.45;;;;;;;;;;5065695;28;20036;-73
2022/10/25 10:20:17;;;;;;;5.90;1.70;;;;;;;;;;5067768;28;20484;-73
2022/10/25 10:22:44;;;;;;;8.00;1.88;;;;;;;;;;5067366;28;20649;-73
2022/10/25 10:25:16;;;;;;;4.75;2.00;;;;;;;;;;5066799;28;20115;-72
2022/10/25 10:27:42;;;;;;;4.10;1.42;;;;;;;;;;5027722;28;20586;-72
2022/10/25 10:30:17;;;;;;;4.30;1.58;;;;;;;;;;5028792;28;20045;-74
2022/10/25 10:32:43;;;;;;;4.10;1.40;;;;;;;;;;5064316;28;20032;-73
2022/10/25 10:35:28;;;;;;;4.20;1.42;;;;;;;;;;5065728;28;20464;-74
2022/10/25 10:38:11;;;;;;;3.58;1.35;;;;;;;;;;5066125;28;20028;-73
2022/10/25 10:40:37;;;;;;;;;;;;;;;;;;5047493;28;20053;-73
2022/10/25 10:43:21;;;;;;;1.33;1.10;;;;;;;;;;5046770;28;19977;-73
2022/10/25 10:45:50;;;;;;;2.60;1.00;;;;;;;;;;5039435;28;20279;-73
2022/10/25 10:48:21;;;;;;;3.17;1.15;;;;;;;;;;5049444;28;20033;-74
2022/10/25 10:50:51;;;;;;;7.07;1.48;;;;;;;;;;5043713;28;20069;-73
2022/10/25 10:53:21;;;;;;;3.22;1.05;;;;;;;;;;5048140;28;20029;-74
2022/10/25 10:55:48;;;;;;;2.33;1.15;;;;;;;;;;5046098;28;20048;-73
2022/10/25 10:58:16;;;;;;;6.15;1.65;;;;;;;;;;5024987;28;20041;-73
2022/10/25 11:01:12;;;;;;;6.07;1.38;;;;;;;;;;5026956;28;20825;-73
2022/10/25 11:03:45;;;;;;;3.78;1.30;;;;;;;;;;5026196;28;20042;-73
2022/10/25 11:06:29;;;;;;;2.10;1.30;;;;;;;;;;5028236;28;20022;-74
2022/10/25 11:09:17;;;;;;;4.47;1.20;;;;;;;;;;5026571;28;20775;-73
2022/10/25 11:12:04;;;;;;;4.28;1.13;;;;;;;;;;5027369;28;20116;-73
2022/10/25 11:14:30;;;;;;;5.03;1.50;;;;;;;;;;5027662;28;20087;-73
2022/10/25 11:17:26;;;;;;;3.97;1.95;;;;;;;;;;5027138;28;20038;-74
2022/10/25 11:20:15;;;;;;;2.90;1.10;;;;;;;;;;5027759;28;20168;-73
2022/10/25 11:22:53;;;;;;;5.18;1.27;;;;;;;;;;5034402;28;20064;-73
2022/10/25 11:25:39;;;;;;;4.43;1.27;;;;;;;;;;5046263;28;20029;-74
2022/10/25 11:28:41;;;;;;;5.55;1.55;;;;;;;;;;5046770;28;20504;-73
2022/10/25 11:31:20;;;;;;;4.53;1.40;;;;;;;;;;5046057;28;20033;-73
2022/10/25 11:34:34;;;;;;;5.93;1.38;;;;;;;;;;5047189;28;20114;-73
2022/10/25 11:37:09;;;;;;;2.58;1.10;;;;;;;;;;5024347;28;20060;-73
2022/10/25 11:39:55;;;;;;;2.28;1.00;;;;;;;;;;5042151;28;21723;-73
2022/10/25 11:42:34;;;;;;;3.00;1.20;;;;;;;;;;5027278;28;20045;-73
2022/10/25 11:45:18;;;;;;;4.18;1.23;;;;;;;;;;5025177;28;20633;-73
2022/10/25 11:47:52;;;;;;;6.05;1.20;;;;;;;;;;5029998;28;20094;-73
2022/10/25 11:50:42;;;;;;;4.30;1.30;;;;;;;;;;5038553;28;20048;-73
2022/10/25 11:53:31;;;;;;;4.43;1.00;;;;;;;;;;5042824;28;20574;-73
2022/10/25 11:56:05;;;;;;;3.13;0.90;;;;;;;;;;5025871;28;20049;-73
2022/10/25 11:59:19;;;;;;;5.75;1.35;;;;;;;;;;5026879;28;20037;-73
2022/10/25 12:01:56;;;;;;;3.23;1.00;;;;;;;;;;5023235;28;20037;-72
2022/10/25 12:04:52;;;;;;;2.22;1.20;;;;;;;;;;5025966;28;20133;-73
2022/10/25 12:07:35;;;;;;;1.70;0.90;;;;;;;;;;5056683;28;20580;-73
2022/10/25 12:10:01;;;;;;;;;;;;;;;;;;5066703;28;20055;-68
2022/10/25 12:12:39;;;;;;;3.72;0.90;;;;;;;;;;5065989;28;20382;-74
2022/10/25 12:15:10;;;;;;;3.78;1.00;;;;;;;;;;5064336;28;20429;-74
2022/10/25 12:17:35;;;;;;;2.15;1.10;;;;;;;;;;5064274;28;20119;-74
2022/10/25 12:20:10;;;;;;;4.30;1.00;;;;;;;;;;5065627;28;20116;-74
2022/10/25 12:22:39;;;;;;;6.18;1.13;;;;;;;;;;5063510;28;20040;-74
2022/10/25 12:25:12;;;;;;;3.13;0.90;;;;;;;;;;5065260;28;20116;-74
2022/10/25 12:27:39;;;;;;;4.35;0.93;;;;;;;;;;5053873;28;20101;-73
2022/10/25 12:30:12;;;;;;;4.72;1.38;;;;;;;;;;5045106;28;20036;-74
2022/10/25 12:32:43;;;;;;;4.20;1.30;;;;;;;;;;5043783;28;20033;-74
2022/10/25 12:35:30;;;;;;;3.15;1.00;;;;;;;;;;5033652;28;20049;-73
2022/10/25 12:38:01;;;;;;;2.35;0.90;;;;;;;;;;5041898;28;20041;-74
2022/10/25 12:40:27;;;;;;;3.40;0.93;;;;;;;;;;5039336;28;20048;-74
2022/10/25 12:43:09;;;;;;;1.63;0.85;;;;;;;;;;5046209;28;20029;-74
2022/10/25 12:45:55;;;;;;;2.58;1.10;;;;;;;;;;5046116;28;20056;-74
2022/10/25 12:48:34;;;;;;;3.17;1.00;;;;;;;;;;5044888;28;20462;-73
2022/10/25 12:51:29;;;;;;;2.65;0.80;;;;;;;;;;5046453;28;20082;-74
2022/10/25 12:54:15;;;;;;;14.80;1.60;;;;;;;;;;5055712;28;20532;-74
2022/10/25 12:56:50;;;;;;;2.72;1.10;;;;;;;;;;5066003;28;20035;-74
2022/10/25 12:59:40;;;;;;;3.25;1.10;;;;;;;;;;5064620;28;20225;-74
2022/10/25 13:02:47;;;;;;;1.35;0.85;;;;;;;;;;5065648;28;20065;-74
2022/10/25 13:05:53;;;;;;;5.03;1.08;;;;;;;;;;5026113;28;20036;-74
2022/10/25 13:08:21;;;;;;;5.10;2.78;;;;;;;;;;5012138;28;20542;-73
2022/10/25 13:10:59;;;;;;;1.85;1.00;;;;;;;;;;5059175;28;20033;-74
2022/10/25 13:13:27;;;;;;;5.85;1.40;;;;;;;;;;5064639;28;20551;-73
2022/10/25 13:15:58;;;;;;;3.42;1.10;;;;;;;;;;5054974;28;20055;-73
2022/10/25 13:18:28;;;;;;;1.73;1.00;;;;;;;;;;5043814;28;20025;-74
2022/10/25 13:20:53;;;;;;;1.58;1.27;;;;;;;;;;5045835;28;20041;-74
2022/10/25 13:23:54;;;;;;;2.80;0.95;;;;;;;;;;5049203;28;20054;-74
2022/10/25 13:26:25;;;;;;;4.05;1.30;;;;;;;;;;5065942;28;20040;-74
2022/10/25 13:28:53;;;;;;;4.75;1.33;;;;;;;;;;5065703;28;20041;-73
2022/10/25 13:31:34;;;;;;;2.03;0.93;;;;;;;;;;5063927;28;20025;-74
2022/10/25 13:34:12;;;;;;;3.30;1.20;;;;;;;;;;5068036;28;20053;-74
2022/10/25 13:36:54;;;;;;;2.90;1.10;;;;;;;;;;5060760;28;20504;-74
2022/10/25 13:39:35;;;;;;;2.47;1.02;;;;;;;;;;5046371;28;20047;-74
2022/10/25 13:42:25;;;;;;;4.18;1.02;;;;;;;;;;5049241;28;20035;-74
2022/10/25 13:45:02;;;;;;;3.63;1.10;;;;;;;;;;5049223;28;20094;-74
2022/10/25 13:47:53;;;;;;;3.75;0.90;;;;;;;;;;5048339;28;20506;-74
2022/10/25 13:50:55;;;;;;;3.90;1.10;;;;;;;;;;5029090;28;20034;-74
2022/10/25 13:53:37;;;;;;;3.40;1.30;;;;;;;;;;5017243;28;20029;-74
2022/10/25 13:56:06;;;;;;;3.55;0.90;;;;;;;;;;5034670;28;20630;-74
2022/10/25 13:58:32;;;;;;;3.58;1.00;;;;;;;;;;5049785;28;20622;-74
2022/10/25 14:01:20;;;;;;;4.90;1.10;;;;;;;;;;5050164;28;20037;-74
2022/10/25 14:03:52;;;;;;;2.80;1.30;;;;;;;;;;5049587;28;20582;-75
2022/10/25 14:06:42;;;;;;;2.72;0.80;;;;;;;;;;5048215;28;20072;-74
2022/10/25 14:09:33;;;;;;;1.35;0.70;;;;;;;;;;5048881;28;20535;-74
2022/10/25 14:11:58;;;;;;;2.45;0.85;;;;;;;;;;5048192;28;20414;-70
2022/10/25 14:15:03;;;;;;;2.03;1.00;;;;;;;;;;5049885;28;20554;-72
2022/10/25 14:17:34;;;;;;;2.45;1.10;;;;;;;;;;5048325;28;20029;-72
2022/10/25 14:20:02;;;;;;;4.53;1.00;;;;;;;;;;5049796;28;20719;-72
2022/10/25 14:22:43;;;;;;;5.93;1.10;;;;;;;;;;5049975;28;20370;-72
2022/10/25 14:25:26;;;;;;;1.35;1.10;;;;;;;;;;5050739;28;20818;-72
2022/10/25 14:28:13;;;;;;;2.58;0.98;;;;;;;;;;5050722;28;20033;-72
2022/10/25 14:30:42;;;;;;;4.63;1.10;;;;;;;;;;5049823;28;20068;-72
2022/10/25 14:33:21;;;;;;;4.78;1.08;;;;;;;;;;5049433;28;20049;-72
2022/10/25 14:35:54;;;;;;;4.90;1.30;;;;;;;;;;5049424;28;20115;-72
2022/10/25 14:38:22;;;;;;;1.90;1.00;;;;;;;;;;5050420;28;20049;-72
2022/10/25 14:40:53;;;;;;;4.80;1.00;;;;;;;;;;5048989;28;20100;-72
2022/10/25 14:43:36;;;;;;;2.70;0.98;;;;;;;;;;5049971;28;20410;-71
2022/10/25 14:46:11;;;;;;;5.40;1.50;;;;;;;;;;5048647;28;20271;-72
2022/10/25 14:48:36;;;;;;;2.95;1.20;;;;;;;;;;5050180;28;20037;-72
2022/10/25 14:51:24;;;;;;;5.53;1.10;;;;;;;;;;5049415;28;20032;-72
2022/10/25 14:53:55;;;;;;;4.07;1.13;;;;;;;;;;5049914;28;20053;-72
2022/10/25 14:56:25;;;;;;;3.08;1.30;;;;;;;;;;5049031;28;20060;-72
2022/10/25 14:58:50;;;;;;;4.32;1.30;;;;;;;;;;5049885;28;20052;-72
2022/10/25 15:01:20;;;;;;;1.88;1.08;;;;;;;;;;5048682;28;20063;-72
2022/10/25 15:03:47;;;;;;;3.15;1.48;;;;;;;;;;5060844;28;20033;-72
2022/10/25 15:06:13;;;;;;;4.10;1.20;;;;;;;;;;5068127;28;20036;-72
2022/10/25 15:08:40;;;;;;;4.35;1.20;;;;;;;;;;5069274;28;20024;-72
2022/10/25 15:11:12;;;;;;;4.10;1.30;;;;;;;;;;5069632;28;20033;-72
2022/10/25 15:13:37;;;;;;;4.43;1.33;;;;;;;;;;5069084;28;20024;-71
2022/10/25 15:16:23;;;;;;;3.47;1.27;;;;;;;;;;5068704;28;20032;-72